Pagina principale
METAR-TAF:

METAR-TAF

Aeroporti :

Aeroporto di Ginevra-Cointrin

Ginevra, Svizzera

latitudine: 46-15N, longitudine: 006-08E, altezza: 420 m

Osservazione

Il bollettino è stato emesso 23 minuti fa, alle 09:20 UTC
Vento 4 kt da est/nord-est
Temperature 16°C
Umidità 55%
Pressione 1019 hPa
Visibilità 10 km o più
nessuna nube inferiore a 1500 m e nessun cumulonembo

METAR: LSGG 170920Z 07004KT CAVOK 16/07 Q1019 NOSIG

Ora: 11:43 (09:43 UTC)

Previsione

Il bollettino è stato emesso 1 ora e 18 minuti fa, alle 08:25 UTC
Previsione valida dal 17 alle 09 UTC al 18 alle 15 UTC
Vento 4 kt da nord/nord-est
Visibilità 10 km o più
nessuna nube inferiore a 1500 m e nessun cumulonembo
Evoluzione graduale
dal 18 alle 08 UTC al 18 alle 10 UTC
Vento 10 kt da nord-est

TAF: LSGG 170825Z 1709/1815 03004KT CAVOK TX22/1715Z TN09/1806Z TX19/1815Z BECMG 1808/1810 05010KT

Osservazioni e previsioni meteorologiche di più di 4000 aeroporti (messaggi METAR e TAF).

Le stazioni disponibili sono rappresentate dai dischi gialli e rossi sulla carta.

Puntare il mouse per vedere il nome della stazione.

Clicca sopra per visualizzare le osservazioni e previsioni meteorologiche.

Per cambiare la mappa : fare clic sui pulsanti verdi con una croce nera per ingrandire, il pulsante verde con un trattino per diminuire, o sulla freccia verde per le mappe adiacenti.


METAR-TAF: